sensor_id;sensor_type;location;lat;lon;timestamp;P1;durP1;ratioP1;P2;durP2;ratioP2
60018;SDS011;45870;42.528;26.740;2023-07-20T00:02:20;11.65;;;7.80;;
60018;SDS011;45870;42.528;26.740;2023-07-20T00:04:46;13.25;;;8.13;;
60018;SDS011;45870;42.528;26.740;2023-07-20T00:07:12;9.93;;;8.13;;
60018;SDS011;45870;42.528;26.740;2023-07-20T00:09:37;9.32;;;8.02;;
60018;SDS011;45870;42.528;26.740;2023-07-20T00:12:03;9.25;;;8.00;;
60018;SDS011;45870;42.528;26.740;2023-07-20T00:14:29;10.68;;;8.45;;
60018;SDS011;45870;42.528;26.740;2023-07-20T00:16:55;12.68;;;8.77;;
60018;SDS011;45870;42.528;26.740;2023-07-20T00:19:24;10.38;;;8.50;;
60018;SDS011;45870;42.528;26.740;2023-07-20T00:21:51;10.95;;;8.00;;
60018;SDS011;45870;42.528;26.740;2023-07-20T00:24:17;11.45;;;8.60;;
60018;SDS011;45870;42.528;26.740;2023-07-20T00:26:43;10.68;;;8.07;;
60018;SDS011;45870;42.528;26.740;2023-07-20T00:29:09;9.30;;;7.88;;
60018;SDS011;45870;42.528;26.740;2023-07-20T00:31:35;11.65;;;8.15;;
60018;SDS011;45870;42.528;26.740;2023-07-20T00:34:03;14.32;;;8.55;;
60018;SDS011;45870;42.528;26.740;2023-07-20T00:36:29;9.55;;;7.93;;
60018;SDS011;45870;42.528;26.740;2023-07-20T00:38:55;14.02;;;8.45;;
60018;SDS011;45870;42.528;26.740;2023-07-20T00:41:21;8.77;;;7.50;;
60018;SDS011;45870;42.528;26.740;2023-07-20T00:43:47;10.65;;;8.50;;
60018;SDS011;45870;42.528;26.740;2023-07-20T00:46:12;11.43;;;8.00;;
60018;SDS011;45870;42.528;26.740;2023-07-20T00:48:39;10.68;;;8.00;;
60018;SDS011;45870;42.528;26.740;2023-07-20T00:51:06;10.10;;;7.72;;
60018;SDS011;45870;42.528;26.740;2023-07-20T00:53:32;12.43;;;8.85;;
60018;SDS011;45870;42.528;26.740;2023-07-20T00:55:58;12.68;;;8.85;;
60018;SDS011;45870;42.528;26.740;2023-07-20T00:58:23;13.32;;;10.32;;
60018;SDS011;45870;42.528;26.740;2023-07-20T01:00:51;11.95;;;9.07;;
60018;SDS011;45870;42.528;26.740;2023-07-20T01:03:17;12.25;;;9.05;;
60018;SDS011;45870;42.528;26.740;2023-07-20T01:05:54;13.90;;;9.15;;
60018;SDS011;45870;42.528;26.740;2023-07-20T01:11:44;15.80;;;9.10;;
60018;SDS011;45870;42.528;26.740;2023-07-20T01:14:23;10.68;;;8.07;;
60018;SDS011;45870;42.528;26.740;2023-07-20T01:16:50;11.60;;;8.35;;
60018;SDS011;45870;42.528;26.740;2023-07-20T01:19:17;9.95;;;7.90;;
60018;SDS011;45870;42.528;26.740;2023-07-20T01:21:49;9.45;;;8.18;;
60018;SDS011;45870;42.528;26.740;2023-07-20T01:24:30;12.38;;;9.27;;
60018;SDS011;45870;42.528;26.740;2023-07-20T01:32:14;9.60;;;8.65;;
60018;SDS011;45870;42.528;26.740;2023-07-20T01:34:42;13.65;;;9.55;;
60018;SDS011;45870;42.528;26.740;2023-07-20T01:37:10;12.18;;;8.65;;
60018;SDS011;45870;42.528;26.740;2023-07-20T01:39:37;14.18;;;8.93;;
60018;SDS011;45870;42.528;26.740;2023-07-20T01:42:04;10.07;;;8.20;;
60018;SDS011;45870;42.528;26.740;2023-07-20T01:44:30;13.32;;;8.80;;
60018;SDS011;45870;42.528;26.740;2023-07-20T01:46:55;11.30;;;8.48;;
60018;SDS011;45870;42.528;26.740;2023-07-20T01:49:21;11.40;;;8.90;;
60018;SDS011;45870;42.528;26.740;2023-07-20T01:51:47;10.05;;;8.43;;
60018;SDS011;45870;42.528;26.740;2023-07-20T01:54:12;14.27;;;8.43;;
60018;SDS011;45870;42.528;26.740;2023-07-20T01:56:38;16.02;;;8.60;;
60018;SDS011;45870;42.528;26.740;2023-07-20T01:59:04;10.43;;;8.20;;
60018;SDS011;45870;42.528;26.740;2023-07-20T02:01:29;14.02;;;8.65;;
60018;SDS011;45870;42.528;26.740;2023-07-20T02:03:55;16.05;;;8.55;;
60018;SDS011;45870;42.528;26.740;2023-07-20T02:06:21;11.30;;;7.75;;
60018;SDS011;45870;42.528;26.740;2023-07-20T02:08:46;10.93;;;7.78;;
60018;SDS011;45870;42.528;26.740;2023-07-20T02:11:12;12.27;;;7.68;;
60018;SDS011;45870;42.528;26.740;2023-07-20T02:13:37;10.90;;;7.28;;
60018;SDS011;45870;42.528;26.740;2023-07-20T02:16:04;11.65;;;6.47;;
60018;SDS011;45870;42.528;26.740;2023-07-20T02:18:30;12.60;;;5.80;;
60018;SDS011;45870;42.528;26.740;2023-07-20T02:20:55;17.17;;;5.90;;
60018;SDS011;45870;42.528;26.740;2023-07-20T02:23:21;15.55;;;5.47;;
60018;SDS011;45870;42.528;26.740;2023-07-20T02:25:46;14.63;;;4.63;;
60018;SDS011;45870;42.528;26.740;2023-07-20T02:28:13;16.38;;;4.82;;
60018;SDS011;45870;42.528;26.740;2023-07-20T02:30:39;11.43;;;4.45;;
60018;SDS011;45870;42.528;26.740;2023-07-20T02:33:05;12.70;;;4.60;;
60018;SDS011;45870;42.528;26.740;2023-07-20T02:35:31;10.40;;;4.07;;
60018;SDS011;45870;42.528;26.740;2023-07-20T02:37:57;10.23;;;4.05;;
60018;SDS011;45870;42.528;26.740;2023-07-20T02:40:23;14.27;;;4.65;;
60018;SDS011;45870;42.528;26.740;2023-07-20T02:42:49;12.52;;;5.05;;
60018;SDS011;45870;42.528;26.740;2023-07-20T02:45:14;21.23;;;4.30;;
60018;SDS011;45870;42.528;26.740;2023-07-20T02:47:41;14.38;;;4.35;;
60018;SDS011;45870;42.528;26.740;2023-07-20T02:50:07;16.33;;;3.85;;
60018;SDS011;45870;42.528;26.740;2023-07-20T02:52:34;14.93;;;3.80;;
60018;SDS011;45870;42.528;26.740;2023-07-20T02:54:59;15.20;;;4.65;;
60018;SDS011;45870;42.528;26.740;2023-07-20T02:57:25;17.08;;;4.45;;
60018;SDS011;45870;42.528;26.740;2023-07-20T02:59:52;12.35;;;3.92;;
60018;SDS011;45870;42.528;26.740;2023-07-20T03:02:17;17.63;;;3.95;;
60018;SDS011;45870;42.528;26.740;2023-07-20T03:04:43;11.43;;;3.60;;
60018;SDS011;45870;42.528;26.740;2023-07-20T03:07:12;9.50;;;3.47;;
60018;SDS011;45870;42.528;26.740;2023-07-20T03:09:37;9.88;;;4.03;;
60018;SDS011;45870;42.528;26.740;2023-07-20T03:12:04;8.95;;;4.20;;
60018;SDS011;45870;42.528;26.740;2023-07-20T03:14:30;10.32;;;4.13;;
60018;SDS011;45870;42.528;26.740;2023-07-20T03:16:56;12.02;;;5.35;;
60018;SDS011;45870;42.528;26.740;2023-07-20T03:19:22;10.68;;;4.80;;
60018;SDS011;45870;42.528;26.740;2023-07-20T03:21:47;14.45;;;4.38;;
60018;SDS011;45870;42.528;26.740;2023-07-20T03:24:13;17.95;;;5.13;;
60018;SDS011;45870;42.528;26.740;2023-07-20T03:26:39;10.18;;;4.75;;
60018;SDS011;45870;42.528;26.740;2023-07-20T03:29:04;16.55;;;5.00;;
60018;SDS011;45870;42.528;26.740;2023-07-20T03:31:31;17.05;;;4.63;;
60018;SDS011;45870;42.528;26.740;2023-07-20T03:33:57;11.35;;;4.97;;
60018;SDS011;45870;42.528;26.740;2023-07-20T03:36:23;11.10;;;5.15;;
60018;SDS011;45870;42.528;26.740;2023-07-20T03:38:48;14.70;;;5.03;;
60018;SDS011;45870;42.528;26.740;2023-07-20T03:41:15;10.88;;;4.90;;
60018;SDS011;45870;42.528;26.740;2023-07-20T03:43:41;22.35;;;5.05;;
60018;SDS011;45870;42.528;26.740;2023-07-20T03:46:07;12.35;;;5.00;;
60018;SDS011;45870;42.528;26.740;2023-07-20T03:48:33;15.80;;;4.78;;
60018;SDS011;45870;42.528;26.740;2023-07-20T03:50:59;22.77;;;5.18;;
60018;SDS011;45870;42.528;26.740;2023-07-20T03:53:25;12.32;;;4.80;;
60018;SDS011;45870;42.528;26.740;2023-07-20T03:55:51;16.88;;;5.18;;
60018;SDS011;45870;42.528;26.740;2023-07-20T03:58:18;11.80;;;4.70;;
60018;SDS011;45870;42.528;26.740;2023-07-20T04:00:45;12.85;;;4.65;;
60018;SDS011;45870;42.528;26.740;2023-07-20T04:03:11;11.75;;;4.47;;
60018;SDS011;45870;42.528;26.740;2023-07-20T04:05:37;12.50;;;4.53;;
60018;SDS011;45870;42.528;26.740;2023-07-20T04:08:03;16.30;;;4.78;;
60018;SDS011;45870;42.528;26.740;2023-07-20T04:10:29;13.63;;;4.25;;
60018;SDS011;45870;42.528;26.740;2023-07-20T04:12:54;13.85;;;4.35;;
60018;SDS011;45870;42.528;26.740;2023-07-20T04:15:20;14.30;;;4.03;;
60018;SDS011;45870;42.528;26.740;2023-07-20T04:17:46;10.95;;;3.85;;
60018;SDS011;45870;42.528;26.740;2023-07-20T04:20:11;8.38;;;4.00;;
60018;SDS011;45870;42.528;26.740;2023-07-20T04:22:37;15.05;;;4.38;;
60018;SDS011;45870;42.528;26.740;2023-07-20T04:25:03;11.65;;;4.07;;
60018;SDS011;45870;42.528;26.740;2023-07-20T04:27:31;11.77;;;3.95;;
60018;SDS011;45870;42.528;26.740;2023-07-20T04:30:00;11.65;;;4.10;;
60018;SDS011;45870;42.528;26.740;2023-07-20T04:32:25;20.33;;;5.28;;
60018;SDS011;45870;42.528;26.740;2023-07-20T04:34:51;12.23;;;4.07;;
60018;SDS011;45870;42.528;26.740;2023-07-20T04:37:17;15.82;;;4.95;;
60018;SDS011;45870;42.528;26.740;2023-07-20T04:39:42;10.30;;;4.45;;
60018;SDS011;45870;42.528;26.740;2023-07-20T04:42:08;11.15;;;4.30;;
60018;SDS011;45870;42.528;26.740;2023-07-20T04:44:34;10.65;;;4.50;;
60018;SDS011;45870;42.528;26.740;2023-07-20T04:46:59;8.00;;;3.85;;
60018;SDS011;45870;42.528;26.740;2023-07-20T04:49:25;19.23;;;3.75;;
60018;SDS011;45870;42.528;26.740;2023-07-20T04:51:51;10.57;;;3.97;;
60018;SDS011;45870;42.528;26.740;2023-07-20T04:54:17;17.00;;;4.03;;
60018;SDS011;45870;42.528;26.740;2023-07-20T04:56:43;13.85;;;4.65;;
60018;SDS011;45870;42.528;26.740;2023-07-20T04:59:09;10.25;;;4.90;;
60018;SDS011;45870;42.528;26.740;2023-07-20T05:01:34;13.90;;;4.45;;
60018;SDS011;45870;42.528;26.740;2023-07-20T05:04:01;8.45;;;4.03;;
60018;SDS011;45870;42.528;26.740;2023-07-20T05:06:27;8.43;;;5.72;;
60018;SDS011;45870;42.528;26.740;2023-07-20T05:08:53;10.27;;;5.20;;
60018;SDS011;45870;42.528;26.740;2023-07-20T05:11:19;11.70;;;4.80;;
60018;SDS011;45870;42.528;26.740;2023-07-20T05:13:45;7.20;;;4.55;;
60018;SDS011;45870;42.528;26.740;2023-07-20T05:16:11;9.00;;;5.15;;
60018;SDS011;45870;42.528;26.740;2023-07-20T05:18:36;10.63;;;5.07;;
60018;SDS011;45870;42.528;26.740;2023-07-20T05:21:02;9.60;;;5.53;;
60018;SDS011;45870;42.528;26.740;2023-07-20T05:23:28;7.72;;;5.40;;
60018;SDS011;45870;42.528;26.740;2023-07-20T05:25:57;11.25;;;4.88;;
60018;SDS011;45870;42.528;26.740;2023-07-20T05:28:24;10.98;;;4.80;;
60018;SDS011;45870;42.528;26.740;2023-07-20T05:30:51;12.80;;;4.60;;
60018;SDS011;45870;42.528;26.740;2023-07-20T05:33:18;11.95;;;4.60;;
60018;SDS011;45870;42.528;26.740;2023-07-20T05:35:44;8.40;;;4.35;;
60018;SDS011;45870;42.528;26.740;2023-07-20T05:38:09;12.90;;;4.75;;
60018;SDS011;45870;42.528;26.740;2023-07-20T05:40:39;13.75;;;4.45;;
60018;SDS011;45870;42.528;26.740;2023-07-20T05:43:06;10.82;;;4.38;;
60018;SDS011;45870;42.528;26.740;2023-07-20T05:45:31;12.73;;;4.70;;
60018;SDS011;45870;42.528;26.740;2023-07-20T05:47:57;7.13;;;4.70;;
60018;SDS011;45870;42.528;26.740;2023-07-20T05:50:23;11.15;;;4.50;;
60018;SDS011;45870;42.528;26.740;2023-07-20T05:52:48;12.38;;;4.53;;
60018;SDS011;45870;42.528;26.740;2023-07-20T05:55:14;13.07;;;4.75;;
60018;SDS011;45870;42.528;26.740;2023-07-20T05:57:39;12.35;;;4.80;;
60018;SDS011;45870;42.528;26.740;2023-07-20T06:00:07;10.45;;;4.53;;
60018;SDS011;45870;42.528;26.740;2023-07-20T06:02:36;10.93;;;4.40;;
60018;SDS011;45870;42.528;26.740;2023-07-20T06:05:02;11.40;;;4.50;;
60018;SDS011;45870;42.528;26.740;2023-07-20T06:07:28;9.75;;;4.00;;
60018;SDS011;45870;42.528;26.740;2023-07-20T06:09:53;11.90;;;4.63;;
60018;SDS011;45870;42.528;26.740;2023-07-20T06:12:19;6.53;;;4.30;;
60018;SDS011;45870;42.528;26.740;2023-07-20T06:14:45;9.00;;;3.67;;
60018;SDS011;45870;42.528;26.740;2023-07-20T06:17:11;7.07;;;3.13;;
60018;SDS011;45870;42.528;26.740;2023-07-20T06:19:37;12.15;;;3.22;;
60018;SDS011;45870;42.528;26.740;2023-07-20T06:22:03;13.10;;;2.70;;
60018;SDS011;45870;42.528;26.740;2023-07-20T06:24:29;10.98;;;2.72;;
60018;SDS011;45870;42.528;26.740;2023-07-20T06:26:55;11.75;;;2.92;;
60018;SDS011;45870;42.528;26.740;2023-07-20T06:29:20;8.45;;;2.63;;
60018;SDS011;45870;42.528;26.740;2023-07-20T06:31:49;9.00;;;2.97;;
60018;SDS011;45870;42.528;26.740;2023-07-20T06:34:15;12.77;;;3.15;;
60018;SDS011;45870;42.528;26.740;2023-07-20T06:36:40;11.38;;;3.28;;
60018;SDS011;45870;42.528;26.740;2023-07-20T06:39:06;14.48;;;3.00;;
60018;SDS011;45870;42.528;26.740;2023-07-20T06:41:32;10.27;;;3.67;;
60018;SDS011;45870;42.528;26.740;2023-07-20T06:43:57;13.57;;;3.50;;
60018;SDS011;45870;42.528;26.740;2023-07-20T06:46:24;7.97;;;3.45;;
60018;SDS011;45870;42.528;26.740;2023-07-20T06:48:53;8.48;;;3.30;;
60018;SDS011;45870;42.528;26.740;2023-07-20T06:51:19;9.63;;;3.45;;
60018;SDS011;45870;42.528;26.740;2023-07-20T06:53:45;12.43;;;3.47;;
60018;SDS011;45870;42.528;26.740;2023-07-20T06:56:11;8.55;;;3.33;;
60018;SDS011;45870;42.528;26.740;2023-07-20T06:58:36;7.40;;;3.50;;
60018;SDS011;45870;42.528;26.740;2023-07-20T07:01:05;11.43;;;3.50;;
60018;SDS011;45870;42.528;26.740;2023-07-20T07:03:32;13.18;;;3.33;;
60018;SDS011;45870;42.528;26.740;2023-07-20T07:05:59;8.90;;;3.30;;
60018;SDS011;45870;42.528;26.740;2023-07-20T07:08:25;10.30;;;3.53;;
60018;SDS011;45870;42.528;26.740;2023-07-20T07:10:52;6.68;;;3.70;;
60018;SDS011;45870;42.528;26.740;2023-07-20T07:13:18;10.75;;;3.60;;
60018;SDS011;45870;42.528;26.740;2023-07-20T07:15:44;7.97;;;3.03;;
60018;SDS011;45870;42.528;26.740;2023-07-20T07:18:11;11.75;;;3.38;;
60018;SDS011;45870;42.528;26.740;2023-07-20T07:20:37;12.10;;;3.83;;
60018;SDS011;45870;42.528;26.740;2023-07-20T07:23:04;12.70;;;3.42;;
60018;SDS011;45870;42.528;26.740;2023-07-20T07:25:30;10.70;;;3.30;;
60018;SDS011;45870;42.528;26.740;2023-07-20T07:27:57;10.07;;;3.53;;
60018;SDS011;45870;42.528;26.740;2023-07-20T07:30:23;8.07;;;3.63;;
60018;SDS011;45870;42.528;26.740;2023-07-20T07:32:48;11.57;;;3.25;;
60018;SDS011;45870;42.528;26.740;2023-07-20T07:35:14;9.77;;;3.65;;
60018;SDS011;45870;42.528;26.740;2023-07-20T07:37:39;10.93;;;3.70;;
60018;SDS011;45870;42.528;26.740;2023-07-20T07:40:05;8.63;;;3.40;;
60018;SDS011;45870;42.528;26.740;2023-07-20T07:42:33;8.65;;;3.45;;
60018;SDS011;45870;42.528;26.740;2023-07-20T07:44:58;10.70;;;3.50;;
60018;SDS011;45870;42.528;26.740;2023-07-20T07:47:24;11.50;;;3.60;;
60018;SDS011;45870;42.528;26.740;2023-07-20T07:49:49;9.18;;;3.85;;
60018;SDS011;45870;42.528;26.740;2023-07-20T07:52:16;15.77;;;3.20;;
60018;SDS011;45870;42.528;26.740;2023-07-20T07:54:42;13.25;;;3.08;;
60018;SDS011;45870;42.528;26.740;2023-07-20T07:57:07;9.23;;;3.35;;
60018;SDS011;45870;42.528;26.740;2023-07-20T07:59:33;9.93;;;3.60;;
60018;SDS011;45870;42.528;26.740;2023-07-20T08:02:04;10.45;;;3.00;;
60018;SDS011;45870;42.528;26.740;2023-07-20T08:04:30;8.75;;;3.25;;
60018;SDS011;45870;42.528;26.740;2023-07-20T08:06:56;10.43;;;3.22;;
60018;SDS011;45870;42.528;26.740;2023-07-20T08:09:22;10.05;;;3.17;;
60018;SDS011;45870;42.528;26.740;2023-07-20T08:11:47;11.20;;;3.10;;
60018;SDS011;45870;42.528;26.740;2023-07-20T08:14:14;10.82;;;3.47;;
60018;SDS011;45870;42.528;26.740;2023-07-20T08:16:40;10.07;;;3.70;;
60018;SDS011;45870;42.528;26.740;2023-07-20T08:19:06;13.23;;;3.08;;
60018;SDS011;45870;42.528;26.740;2023-07-20T08:21:32;10.30;;;3.20;;
60018;SDS011;45870;42.528;26.740;2023-07-20T08:23:57;11.13;;;3.58;;
60018;SDS011;45870;42.528;26.740;2023-07-20T08:26:23;8.63;;;3.35;;
60018;SDS011;45870;42.528;26.740;2023-07-20T08:28:49;8.30;;;3.33;;
60018;SDS011;45870;42.528;26.740;2023-07-20T08:31:15;16.23;;;3.53;;
60018;SDS011;45870;42.528;26.740;2023-07-20T08:33:41;10.65;;;3.08;;
60018;SDS011;45870;42.528;26.740;2023-07-20T08:36:06;7.40;;;3.08;;
60018;SDS011;45870;42.528;26.740;2023-07-20T08:38:32;9.15;;;3.58;;
60018;SDS011;45870;42.528;26.740;2023-07-20T08:40:58;12.68;;;3.08;;
60018;SDS011;45870;42.528;26.740;2023-07-20T08:43:25;5.63;;;2.83;;
60018;SDS011;45870;42.528;26.740;2023-07-20T08:45:54;7.50;;;3.15;;
60018;SDS011;45870;42.528;26.740;2023-07-20T08:48:21;7.60;;;2.97;;
60018;SDS011;45870;42.528;26.740;2023-07-20T08:50:49;6.57;;;3.10;;
60018;SDS011;45870;42.528;26.740;2023-07-20T08:53:17;7.13;;;3.22;;
60018;SDS011;45870;42.528;26.740;2023-07-20T08:55:44;5.90;;;3.13;;
60018;SDS011;45870;42.528;26.740;2023-07-20T08:58:12;7.43;;;3.20;;
60018;SDS011;45870;42.528;26.740;2023-07-20T09:00:39;6.55;;;3.38;;
60018;SDS011;45870;42.528;26.740;2023-07-20T09:03:06;13.00;;;3.55;;
60018;SDS011;45870;42.528;26.740;2023-07-20T09:05:34;5.85;;;3.25;;
60018;SDS011;45870;42.528;26.740;2023-07-20T09:08:00;9.10;;;3.58;;
60018;SDS011;45870;42.528;26.740;2023-07-20T09:10:29;5.78;;;3.20;;
60018;SDS011;45870;42.528;26.740;2023-07-20T09:12:55;8.32;;;3.25;;
60018;SDS011;45870;42.528;26.740;2023-07-20T09:15:21;7.45;;;3.55;;
60018;SDS011;45870;42.528;26.740;2023-07-20T09:17:48;5.68;;;2.90;;
60018;SDS011;45870;42.528;26.740;2023-07-20T09:20:21;9.43;;;3.25;;
60018;SDS011;45870;42.528;26.740;2023-07-20T09:22:47;7.43;;;3.22;;
60018;SDS011;45870;42.528;26.740;2023-07-20T09:25:18;6.97;;;3.83;;
60018;SDS011;45870;42.528;26.740;2023-07-20T09:27:46;7.80;;;3.30;;
60018;SDS011;45870;42.528;26.740;2023-07-20T09:30:14;5.68;;;3.30;;
60018;SDS011;45870;42.528;26.740;2023-07-20T09:32:45;6.70;;;3.58;;
60018;SDS011;45870;42.528;26.740;2023-07-20T09:35:15;6.07;;;3.45;;
60018;SDS011;45870;42.528;26.740;2023-07-20T09:40:14;7.63;;;3.38;;
60018;SDS011;45870;42.528;26.740;2023-07-20T09:42:43;6.43;;;3.47;;
60018;SDS011;45870;42.528;26.740;2023-07-20T09:45:10;8.98;;;3.75;;
60018;SDS011;45870;42.528;26.740;2023-07-20T09:47:37;7.22;;;3.40;;
60018;SDS011;45870;42.528;26.740;2023-07-20T09:50:03;8.88;;;3.50;;
60018;SDS011;45870;42.528;26.740;2023-07-20T09:52:30;8.55;;;3.50;;
60018;SDS011;45870;42.528;26.740;2023-07-20T09:54:56;7.82;;;3.47;;
60018;SDS011;45870;42.528;26.740;2023-07-20T09:57:23;6.75;;;3.65;;
60018;SDS011;45870;42.528;26.740;2023-07-20T09:59:51;5.40;;;3.83;;
60018;SDS011;45870;42.528;26.740;2023-07-20T10:02:20;9.35;;;3.45;;
60018;SDS011;45870;42.528;26.740;2023-07-20T10:04:51;6.00;;;3.30;;
60018;SDS011;45870;42.528;26.740;2023-07-20T10:07:19;7.68;;;3.70;;
60018;SDS011;45870;42.528;26.740;2023-07-20T10:09:48;7.57;;;3.53;;
60018;SDS011;45870;42.528;26.740;2023-07-20T10:12:19;6.45;;;3.40;;
60018;SDS011;45870;42.528;26.740;2023-07-20T10:14:59;10.95;;;3.40;;
60018;SDS011;45870;42.528;26.740;2023-07-20T10:17:33;7.40;;;3.63;;
60018;SDS011;45870;42.528;26.740;2023-07-20T10:20:01;7.53;;;3.72;;
60018;SDS011;45870;42.528;26.740;2023-07-20T10:22:32;6.10;;;3.38;;
60018;SDS011;45870;42.528;26.740;2023-07-20T10:25:01;8.70;;;3.80;;
60018;SDS011;45870;42.528;26.740;2023-07-20T10:27:27;6.75;;;3.58;;
60018;SDS011;45870;42.528;26.740;2023-07-20T10:29:53;8.75;;;3.63;;
60018;SDS011;45870;42.528;26.740;2023-07-20T10:32:20;7.78;;;4.25;;
60018;SDS011;45870;42.528;26.740;2023-07-20T10:34:50;6.45;;;4.05;;
60018;SDS011;45870;42.528;26.740;2023-07-20T10:42:59;7.35;;;3.85;;
60018;SDS011;45870;42.528;26.740;2023-07-20T10:45:33;8.85;;;3.60;;
60018;SDS011;45870;42.528;26.740;2023-07-20T10:48:12;11.05;;;3.60;;
60018;SDS011;45870;42.528;26.740;2023-07-20T10:50:43;8.80;;;3.65;;
60018;SDS011;45870;42.528;26.740;2023-07-20T10:53:12;15.18;;;3.95;;
60018;SDS011;45870;42.528;26.740;2023-07-20T10:55:40;9.23;;;3.70;;
60018;SDS011;45870;42.528;26.740;2023-07-20T10:58:13;10.18;;;4.10;;
60018;SDS011;45870;42.528;26.740;2023-07-20T11:00:57;13.18;;;3.70;;
60018;SDS011;45870;42.528;26.740;2023-07-20T11:03:29;8.65;;;3.97;;
60018;SDS011;45870;42.528;26.740;2023-07-20T11:05:57;9.30;;;3.55;;
60018;SDS011;45870;42.528;26.740;2023-07-20T11:19:16;8.98;;;4.30;;
60018;SDS011;45870;42.528;26.740;2023-07-20T11:21:52;7.60;;;4.45;;
60018;SDS011;45870;42.528;26.740;2023-07-20T11:24:19;14.20;;;3.67;;
60018;SDS011;45870;42.528;26.740;2023-07-20T11:26:46;4.30;;;3.67;;
60018;SDS011;45870;42.528;26.740;2023-07-20T11:29:14;8.90;;;4.25;;
60018;SDS011;45870;42.528;26.740;2023-07-20T11:31:44;11.50;;;4.50;;
60018;SDS011;45870;42.528;26.740;2023-07-20T11:34:11;7.32;;;4.38;;
60018;SDS011;45870;42.528;26.740;2023-07-20T11:36:41;10.85;;;4.22;;
60018;SDS011;45870;42.528;26.740;2023-07-20T11:39:09;7.82;;;4.10;;
60018;SDS011;45870;42.528;26.740;2023-07-20T11:41:35;8.82;;;4.15;;
60018;SDS011;45870;42.528;26.740;2023-07-20T11:44:01;13.18;;;4.30;;
60018;SDS011;45870;42.528;26.740;2023-07-20T11:46:30;9.10;;;4.50;;
60018;SDS011;45870;42.528;26.740;2023-07-20T11:48:57;8.55;;;4.05;;
60018;SDS011;45870;42.528;26.740;2023-07-20T11:51:27;9.30;;;4.80;;
60018;SDS011;45870;42.528;26.740;2023-07-20T11:53:54;7.63;;;4.30;;
60018;SDS011;45870;42.528;26.740;2023-07-20T11:56:20;10.63;;;4.60;;
60018;SDS011;45870;42.528;26.740;2023-07-20T11:58:48;13.05;;;4.60;;
60018;SDS011;45870;42.528;26.740;2023-07-20T12:01:14;9.10;;;4.32;;
60018;SDS011;45870;42.528;26.740;2023-07-20T12:03:42;9.27;;;4.82;;
60018;SDS011;45870;42.528;26.740;2023-07-20T12:06:09;10.25;;;4.35;;
60018;SDS011;45870;42.528;26.740;2023-07-20T12:08:40;6.72;;;3.92;;
60018;SDS011;45870;42.528;26.740;2023-07-20T12:11:07;9.77;;;4.60;;
60018;SDS011;45870;42.528;26.740;2023-07-20T12:13:37;14.20;;;4.90;;
60018;SDS011;45870;42.528;26.740;2023-07-20T12:16:14;12.23;;;4.38;;
60018;SDS011;45870;42.528;26.740;2023-07-20T12:18:42;8.18;;;4.55;;
60018;SDS011;45870;42.528;26.740;2023-07-20T12:21:09;8.77;;;4.50;;
60018;SDS011;45870;42.528;26.740;2023-07-20T12:23:36;7.20;;;4.40;;
60018;SDS011;45870;42.528;26.740;2023-07-20T12:26:08;9.90;;;5.10;;
60018;SDS011;45870;42.528;26.740;2023-07-20T12:28:38;8.38;;;4.32;;
60018;SDS011;45870;42.528;26.740;2023-07-20T12:31:05;7.63;;;4.60;;
60018;SDS011;45870;42.528;26.740;2023-07-20T12:33:31;13.23;;;4.70;;
60018;SDS011;45870;42.528;26.740;2023-07-20T12:35:57;9.15;;;4.75;;
60018;SDS011;45870;42.528;26.740;2023-07-20T12:38:24;7.72;;;4.93;;
60018;SDS011;45870;42.528;26.740;2023-07-20T12:40:52;9.77;;;4.63;;
60018;SDS011;45870;42.528;26.740;2023-07-20T12:43:19;8.07;;;4.80;;
60018;SDS011;45870;42.528;26.740;2023-07-20T12:45:45;8.60;;;4.82;;
60018;SDS011;45870;42.528;26.740;2023-07-20T12:48:11;7.47;;;5.03;;
60018;SDS011;45870;42.528;26.740;2023-07-20T12:50:36;9.93;;;4.47;;
60018;SDS011;45870;42.528;26.740;2023-07-20T12:53:02;10.88;;;5.15;;
60018;SDS011;45870;42.528;26.740;2023-07-20T12:55:28;8.57;;;4.60;;
60018;SDS011;45870;42.528;26.740;2023-07-20T12:57:55;7.75;;;5.10;;
60018;SDS011;45870;42.528;26.740;2023-07-20T13:00:20;12.48;;;5.03;;
60018;SDS011;45870;42.528;26.740;2023-07-20T13:02:49;10.57;;;5.03;;
60018;SDS011;45870;42.528;26.740;2023-07-20T13:05:15;13.00;;;4.90;;
60018;SDS011;45870;42.528;26.740;2023-07-20T13:07:42;10.27;;;5.05;;
60018;SDS011;45870;42.528;26.740;2023-07-20T13:10:08;8.25;;;4.60;;
60018;SDS011;45870;42.528;26.740;2023-07-20T13:12:35;11.40;;;5.30;;
60018;SDS011;45870;42.528;26.740;2023-07-20T13:15:03;9.85;;;4.97;;
60018;SDS011;45870;42.528;26.740;2023-07-20T13:17:31;7.68;;;4.75;;
60018;SDS011;45870;42.528;26.740;2023-07-20T13:19:58;8.98;;;4.57;;
60018;SDS011;45870;42.528;26.740;2023-07-20T13:22:24;6.55;;;4.68;;
60018;SDS011;45870;42.528;26.740;2023-07-20T13:24:49;6.68;;;2.10;;
60018;SDS011;45870;42.528;26.740;2023-07-20T13:27:17;6.97;;;2.30;;
60018;SDS011;45870;42.528;26.740;2023-07-20T13:29:43;3.38;;;1.73;;
60018;SDS011;45870;42.528;26.740;2023-07-20T13:32:09;5.93;;;2.03;;
60018;SDS011;45870;42.528;26.740;2023-07-20T13:34:35;4.38;;;1.90;;
60018;SDS011;45870;42.528;26.740;2023-07-20T13:37:02;5.43;;;2.20;;
60018;SDS011;45870;42.528;26.740;2023-07-20T13:39:27;4.15;;;1.90;;
60018;SDS011;45870;42.528;26.740;2023-07-20T13:41:53;3.92;;;2.42;;
60018;SDS011;45870;42.528;26.740;2023-07-20T13:44:20;5.20;;;2.05;;
60018;SDS011;45870;42.528;26.740;2023-07-20T13:46:46;5.00;;;2.03;;
60018;SDS011;45870;42.528;26.740;2023-07-20T13:49:12;6.90;;;2.40;;
60018;SDS011;45870;42.528;26.740;2023-07-20T13:51:39;6.25;;;2.17;;
60018;SDS011;45870;42.528;26.740;2023-07-20T13:54:05;4.05;;;2.20;;
60018;SDS011;45870;42.528;26.740;2023-07-20T13:56:31;5.53;;;2.25;;
60018;SDS011;45870;42.528;26.740;2023-07-20T13:58:57;11.70;;;2.30;;
60018;SDS011;45870;42.528;26.740;2023-07-20T14:01:23;3.92;;;2.42;;
60018;SDS011;45870;42.528;26.740;2023-07-20T14:03:53;4.65;;;2.28;;
60018;SDS011;45870;42.528;26.740;2023-07-20T14:06:18;5.38;;;2.53;;
60018;SDS011;45870;42.528;26.740;2023-07-20T14:08:44;5.43;;;2.58;;
60018;SDS011;45870;42.528;26.740;2023-07-20T14:11:14;5.75;;;2.65;;
60018;SDS011;45870;42.528;26.740;2023-07-20T14:13:40;5.60;;;1.98;;
60018;SDS011;45870;42.528;26.740;2023-07-20T14:16:06;5.45;;;2.10;;
60018;SDS011;45870;42.528;26.740;2023-07-20T14:18:33;3.25;;;1.95;;
60018;SDS011;45870;42.528;26.740;2023-07-20T14:20:59;3.00;;;2.05;;
60018;SDS011;45870;42.528;26.740;2023-07-20T14:23:37;5.22;;;2.10;;
60018;SDS011;45870;42.528;26.740;2023-07-20T14:26:04;4.35;;;1.90;;
60018;SDS011;45870;42.528;26.740;2023-07-20T14:28:30;2.72;;;1.55;;
60018;SDS011;45870;42.528;26.740;2023-07-20T14:30:57;6.40;;;2.30;;
60018;SDS011;45870;42.528;26.740;2023-07-20T14:33:23;7.00;;;2.00;;
60018;SDS011;45870;42.528;26.740;2023-07-20T14:35:48;14.88;;;3.30;;
60018;SDS011;45870;42.528;26.740;2023-07-20T14:38:14;21.15;;;6.25;;
60018;SDS011;45870;42.528;26.740;2023-07-20T14:40:39;17.65;;;7.75;;
60018;SDS011;45870;42.528;26.740;2023-07-20T14:43:06;12.55;;;6.72;;
60018;SDS011;45870;42.528;26.740;2023-07-20T14:45:32;13.90;;;7.05;;
60018;SDS011;45870;42.528;26.740;2023-07-20T14:47:57;12.60;;;6.22;;
60018;SDS011;45870;42.528;26.740;2023-07-20T14:50:24;9.55;;;5.28;;
60018;SDS011;45870;42.528;26.740;2023-07-20T14:52:50;8.98;;;4.80;;
60018;SDS011;45870;42.528;26.740;2023-07-20T14:55:15;8.82;;;4.68;;